Terminal Aerodrome Forecast
Issued by NWS

Home | Current Version | Previous Version | Text Only | Print | Product List | Glossary On
Versions: 1 2 3 4 5 6 7 8 9 10 11 12 13 14 15 16 17 18
622
FTUS41 KPHI 231732
TAFMIV
TAF
KMIV 231732Z 2318/2418 32006KT P6SM BKN045
     FM232200 32004KT P6SM BKN250
     FM240200 00000KT P6SM SCT250
     FM241400 02007KT P6SM SKC
     FM241700 33006KT P6SM SCT250=

USA.gov is the U.S. government's official web portal to all federal, state and local government web resources and services.